sensor_id;sensor_type;location;lat;lon;timestamp;temperature;humidity
71142;DHT22;58808;59.366;17.970;2023-04-03T00:01:32;-1.10;99.90
71142;DHT22;58808;59.366;17.970;2023-04-03T00:03:58;-1.20;99.90
71142;DHT22;58808;59.366;17.970;2023-04-03T00:06:24;-1.10;99.90
71142;DHT22;58808;59.366;17.970;2023-04-03T00:08:50;-1.20;99.90
71142;DHT22;58808;59.366;17.970;2023-04-03T00:11:17;-1.30;99.90
71142;DHT22;58808;59.366;17.970;2023-04-03T00:13:43;-1.40;99.90
71142;DHT22;58808;59.366;17.970;2023-04-03T00:16:10;-1.40;99.90
71142;DHT22;58808;59.366;17.970;2023-04-03T00:18:37;-1.30;99.90
71142;DHT22;58808;59.366;17.970;2023-04-03T00:21:03;-1.50;99.90
71142;DHT22;58808;59.366;17.970;2023-04-03T00:23:29;-1.40;99.90
71142;DHT22;58808;59.366;17.970;2023-04-03T00:25:55;-1.50;99.90
71142;DHT22;58808;59.366;17.970;2023-04-03T00:28:21;-1.50;99.90
71142;DHT22;58808;59.366;17.970;2023-04-03T00:30:49;-1.60;99.90
71142;DHT22;58808;59.366;17.970;2023-04-03T00:33:15;-1.60;99.90
71142;DHT22;58808;59.366;17.970;2023-04-03T00:35:41;-1.50;99.90
71142;DHT22;58808;59.366;17.970;2023-04-03T00:38:07;-1.50;99.90
71142;DHT22;58808;59.366;17.970;2023-04-03T00:40:39;-1.70;99.90
71142;DHT22;58808;59.366;17.970;2023-04-03T00:43:21;-1.60;99.90
71142;DHT22;58808;59.366;17.970;2023-04-03T00:45:50;-1.60;99.90
71142;DHT22;58808;59.366;17.970;2023-04-03T00:48:20;-1.60;99.90
71142;DHT22;58808;59.366;17.970;2023-04-03T00:50:47;-1.70;99.90
71142;DHT22;58808;59.366;17.970;2023-04-03T00:53:21;-1.60;99.90
71142;DHT22;58808;59.366;17.970;2023-04-03T00:55:49;-1.60;99.90
71142;DHT22;58808;59.366;17.970;2023-04-03T00:58:18;-1.60;99.90
71142;DHT22;58808;59.366;17.970;2023-04-03T01:00:50;-1.50;99.90
71142;DHT22;58808;59.366;17.970;2023-04-03T01:03:21;-1.70;99.90
71142;DHT22;58808;59.366;17.970;2023-04-03T01:05:47;-1.70;99.90
71142;DHT22;58808;59.366;17.970;2023-04-03T01:08:13;-1.60;99.90
71142;DHT22;58808;59.366;17.970;2023-04-03T01:10:39;-1.70;99.90
71142;DHT22;58808;59.366;17.970;2023-04-03T01:13:31;-1.70;99.90
71142;DHT22;58808;59.366;17.970;2023-04-03T01:16:01;-1.70;99.90
71142;DHT22;58808;59.366;17.970;2023-04-03T01:18:27;-1.70;99.90
71142;DHT22;58808;59.366;17.970;2023-04-03T01:24:26;-1.70;99.90
71142;DHT22;58808;59.366;17.970;2023-04-03T01:26:53;-1.60;99.90
71142;DHT22;58808;59.366;17.970;2023-04-03T01:29:19;-1.70;99.90
71142;DHT22;58808;59.366;17.970;2023-04-03T01:34:17;-1.80;99.90
71142;DHT22;58808;59.366;17.970;2023-04-03T01:36:43;-1.70;99.90
71142;DHT22;58808;59.366;17.970;2023-04-03T01:39:09;-1.80;99.90
71142;DHT22;58808;59.366;17.970;2023-04-03T01:41:35;-1.70;99.90
71142;DHT22;58808;59.366;17.970;2023-04-03T01:44:01;-1.70;99.90
71142;DHT22;58808;59.366;17.970;2023-04-03T01:46:26;-1.70;99.90
71142;DHT22;58808;59.366;17.970;2023-04-03T01:48:52;-1.80;99.90
71142;DHT22;58808;59.366;17.970;2023-04-03T01:51:18;-1.90;99.90
71142;DHT22;58808;59.366;17.970;2023-04-03T01:53:43;-1.90;99.90
71142;DHT22;58808;59.366;17.970;2023-04-03T01:56:09;-1.90;99.90
71142;DHT22;58808;59.366;17.970;2023-04-03T01:58:35;-2.00;99.90
71142;DHT22;58808;59.366;17.970;2023-04-03T02:01:01;-2.10;99.90
71142;DHT22;58808;59.366;17.970;2023-04-03T02:03:27;-2.00;99.90
71142;DHT22;58808;59.366;17.970;2023-04-03T02:05:53;-1.90;99.90
71142;DHT22;58808;59.366;17.970;2023-04-03T02:08:19;-1.90;99.90
71142;DHT22;58808;59.366;17.970;2023-04-03T02:10:47;-2.00;99.90
71142;DHT22;58808;59.366;17.970;2023-04-03T02:13:14;-1.90;99.90
71142;DHT22;58808;59.366;17.970;2023-04-03T02:15:39;-2.00;99.90
71142;DHT22;58808;59.366;17.970;2023-04-03T02:18:06;-2.00;99.90
71142;DHT22;58808;59.366;17.970;2023-04-03T02:20:32;-2.00;99.90
71142;DHT22;58808;59.366;17.970;2023-04-03T02:22:58;-2.10;99.90
71142;DHT22;58808;59.366;17.970;2023-04-03T02:25:24;-2.20;99.90
71142;DHT22;58808;59.366;17.970;2023-04-03T02:27:50;-2.30;99.90
71142;DHT22;58808;59.366;17.970;2023-04-03T02:30:16;-2.20;99.90
71142;DHT22;58808;59.366;17.970;2023-04-03T02:32:43;-2.10;99.90
71142;DHT22;58808;59.366;17.970;2023-04-03T02:35:09;-2.00;99.90
71142;DHT22;58808;59.366;17.970;2023-04-03T02:37:35;-2.00;99.90
71142;DHT22;58808;59.366;17.970;2023-04-03T02:40:02;-2.00;99.90
71142;DHT22;58808;59.366;17.970;2023-04-03T02:42:27;-1.90;99.90
71142;DHT22;58808;59.366;17.970;2023-04-03T02:44:53;-1.90;99.90
71142;DHT22;58808;59.366;17.970;2023-04-03T02:47:19;-1.90;99.90
71142;DHT22;58808;59.366;17.970;2023-04-03T02:49:45;-1.90;99.90
71142;DHT22;58808;59.366;17.970;2023-04-03T02:52:14;-1.80;99.90
71142;DHT22;58808;59.366;17.970;2023-04-03T02:54:40;-2.00;99.90
71142;DHT22;58808;59.366;17.970;2023-04-03T02:57:06;-2.00;99.90
71142;DHT22;58808;59.366;17.970;2023-04-03T02:59:35;-2.00;99.90
71142;DHT22;58808;59.366;17.970;2023-04-03T03:02:01;-2.00;99.90
71142;DHT22;58808;59.366;17.970;2023-04-03T03:04:27;-2.10;99.90
71142;DHT22;58808;59.366;17.970;2023-04-03T03:06:53;-2.10;99.90
71142;DHT22;58808;59.366;17.970;2023-04-03T03:09:18;-2.10;99.90
71142;DHT22;58808;59.366;17.970;2023-04-03T03:11:45;-2.00;99.90
71142;DHT22;58808;59.366;17.970;2023-04-03T03:14:10;-2.00;99.90
71142;DHT22;58808;59.366;17.970;2023-04-03T03:16:36;-2.10;99.90
71142;DHT22;58808;59.366;17.970;2023-04-03T03:19:02;-2.10;99.90
71142;DHT22;58808;59.366;17.970;2023-04-03T03:21:28;-2.10;99.90
71142;DHT22;58808;59.366;17.970;2023-04-03T03:23:53;-2.10;99.90
71142;DHT22;58808;59.366;17.970;2023-04-03T03:26:19;-2.20;99.90
71142;DHT22;58808;59.366;17.970;2023-04-03T03:28:45;-2.30;99.90
71142;DHT22;58808;59.366;17.970;2023-04-03T03:31:11;-2.20;99.90
71142;DHT22;58808;59.366;17.970;2023-04-03T03:33:37;-2.20;99.90
71142;DHT22;58808;59.366;17.970;2023-04-03T03:36:03;-2.30;99.90
71142;DHT22;58808;59.366;17.970;2023-04-03T03:38:29;-2.30;99.90
71142;DHT22;58808;59.366;17.970;2023-04-03T03:40:55;-2.30;99.90
71142;DHT22;58808;59.366;17.970;2023-04-03T03:43:21;-2.20;99.90
71142;DHT22;58808;59.366;17.970;2023-04-03T03:45:53;-2.20;99.90
71142;DHT22;58808;59.366;17.970;2023-04-03T03:48:20;-2.20;99.90
71142;DHT22;58808;59.366;17.970;2023-04-03T03:50:47;-2.20;99.90
71142;DHT22;58808;59.366;17.970;2023-04-03T03:53:13;-2.30;99.90
71142;DHT22;58808;59.366;17.970;2023-04-03T03:55:38;-2.30;99.90
71142;DHT22;58808;59.366;17.970;2023-04-03T03:58:04;-2.30;99.90
71142;DHT22;58808;59.366;17.970;2023-04-03T04:00:30;-2.30;99.90
71142;DHT22;58808;59.366;17.970;2023-04-03T04:02:56;-2.30;99.90
71142;DHT22;58808;59.366;17.970;2023-04-03T04:05:22;-2.30;99.90
71142;DHT22;58808;59.366;17.970;2023-04-03T04:07:48;-2.30;99.90
71142;DHT22;58808;59.366;17.970;2023-04-03T04:10:14;-2.20;99.90
71142;DHT22;58808;59.366;17.970;2023-04-03T04:12:40;-2.30;99.90
71142;DHT22;58808;59.366;17.970;2023-04-03T04:15:06;-2.30;99.90
71142;DHT22;58808;59.366;17.970;2023-04-03T04:17:32;-2.30;99.90
71142;DHT22;58808;59.366;17.970;2023-04-03T04:19:58;-2.30;99.90
71142;DHT22;58808;59.366;17.970;2023-04-03T04:22:23;-2.30;99.90
71142;DHT22;58808;59.366;17.970;2023-04-03T04:24:49;-2.40;99.90
71142;DHT22;58808;59.366;17.970;2023-04-03T04:27:15;-2.40;99.90
71142;DHT22;58808;59.366;17.970;2023-04-03T04:29:41;-2.40;99.90
71142;DHT22;58808;59.366;17.970;2023-04-03T04:32:07;-2.40;99.90
71142;DHT22;58808;59.366;17.970;2023-04-03T04:34:34;-2.40;99.90
71142;DHT22;58808;59.366;17.970;2023-04-03T04:37:00;-2.40;99.90
71142;DHT22;58808;59.366;17.970;2023-04-03T04:39:26;-2.40;99.90
71142;DHT22;58808;59.366;17.970;2023-04-03T04:41:51;-2.40;99.90
71142;DHT22;58808;59.366;17.970;2023-04-03T04:44:17;-2.40;99.90
71142;DHT22;58808;59.366;17.970;2023-04-03T04:46:43;-2.40;99.90
71142;DHT22;58808;59.366;17.970;2023-04-03T04:49:08;-2.40;99.90
71142;DHT22;58808;59.366;17.970;2023-04-03T04:51:34;-2.40;99.90
71142;DHT22;58808;59.366;17.970;2023-04-03T04:54:00;-2.40;99.90
71142;DHT22;58808;59.366;17.970;2023-04-03T04:56:26;-2.30;99.90
71142;DHT22;58808;59.366;17.970;2023-04-03T04:58:52;-2.30;99.90
71142;DHT22;58808;59.366;17.970;2023-04-03T05:01:17;-2.30;99.90
71142;DHT22;58808;59.366;17.970;2023-04-03T05:03:44;-2.30;99.90
71142;DHT22;58808;59.366;17.970;2023-04-03T05:06:10;-2.40;99.90
71142;DHT22;58808;59.366;17.970;2023-04-03T05:08:36;-2.30;99.90
71142;DHT22;58808;59.366;17.970;2023-04-03T05:11:01;-2.30;99.90
71142;DHT22;58808;59.366;17.970;2023-04-03T05:13:27;-2.30;99.90
71142;DHT22;58808;59.366;17.970;2023-04-03T05:15:53;-2.20;99.90
71142;DHT22;58808;59.366;17.970;2023-04-03T05:18:18;-2.20;99.90
71142;DHT22;58808;59.366;17.970;2023-04-03T05:20:44;-2.30;99.90
71142;DHT22;58808;59.366;17.970;2023-04-03T05:23:11;-2.20;99.90
71142;DHT22;58808;59.366;17.970;2023-04-03T05:25:40;-2.20;99.90
71142;DHT22;58808;59.366;17.970;2023-04-03T05:28:06;-2.20;99.90
71142;DHT22;58808;59.366;17.970;2023-04-03T05:30:32;-2.20;99.90
71142;DHT22;58808;59.366;17.970;2023-04-03T05:32:58;-2.20;99.90
71142;DHT22;58808;59.366;17.970;2023-04-03T05:35:25;-2.20;99.90
71142;DHT22;58808;59.366;17.970;2023-04-03T05:37:51;-2.20;99.90
71142;DHT22;58808;59.366;17.970;2023-04-03T05:40:17;-2.20;99.90
71142;DHT22;58808;59.366;17.970;2023-04-03T05:42:43;-2.10;99.90
71142;DHT22;58808;59.366;17.970;2023-04-03T05:45:10;-2.10;99.90
71142;DHT22;58808;59.366;17.970;2023-04-03T05:47:35;-2.10;99.90
71142;DHT22;58808;59.366;17.970;2023-04-03T05:50:02;-2.10;99.90
71142;DHT22;58808;59.366;17.970;2023-04-03T05:52:33;-2.10;99.90
71142;DHT22;58808;59.366;17.970;2023-04-03T05:55:00;-2.10;99.90
71142;DHT22;58808;59.366;17.970;2023-04-03T05:57:26;-2.00;99.90
71142;DHT22;58808;59.366;17.970;2023-04-03T05:59:52;-2.00;99.90
71142;DHT22;58808;59.366;17.970;2023-04-03T06:02:20;-1.90;99.90
71142;DHT22;58808;59.366;17.970;2023-04-03T06:04:46;-1.90;99.90
71142;DHT22;58808;59.366;17.970;2023-04-03T06:07:21;-1.80;99.90
71142;DHT22;58808;59.366;17.970;2023-04-03T06:09:49;-1.80;99.90
71142;DHT22;58808;59.366;17.970;2023-04-03T06:12:15;-1.80;99.90
71142;DHT22;58808;59.366;17.970;2023-04-03T06:14:41;-1.70;99.90
71142;DHT22;58808;59.366;17.970;2023-04-03T06:17:07;-1.70;99.90
71142;DHT22;58808;59.366;17.970;2023-04-03T06:19:34;-1.70;99.90
71142;DHT22;58808;59.366;17.970;2023-04-03T06:22:00;-1.60;99.90
71142;DHT22;58808;59.366;17.970;2023-04-03T06:24:26;-1.60;99.90
71142;DHT22;58808;59.366;17.970;2023-04-03T06:26:53;-1.60;99.90
71142;DHT22;58808;59.366;17.970;2023-04-03T06:29:22;-1.50;99.90
71142;DHT22;58808;59.366;17.970;2023-04-03T06:31:48;-1.50;99.90
71142;DHT22;58808;59.366;17.970;2023-04-03T06:34:15;-1.50;99.90
71142;DHT22;58808;59.366;17.970;2023-04-03T06:36:42;-1.40;99.90
71142;DHT22;58808;59.366;17.970;2023-04-03T06:39:20;-1.30;99.90
71142;DHT22;58808;59.366;17.970;2023-04-03T06:41:46;-1.20;99.90
71142;DHT22;58808;59.366;17.970;2023-04-03T06:44:15;-1.20;99.90
71142;DHT22;58808;59.366;17.970;2023-04-03T06:46:41;-1.20;99.90
71142;DHT22;58808;59.366;17.970;2023-04-03T06:49:07;-1.10;99.90
71142;DHT22;58808;59.366;17.970;2023-04-03T06:51:35;-1.10;99.90
71142;DHT22;58808;59.366;17.970;2023-04-03T06:54:01;-1.00;99.90
71142;DHT22;58808;59.366;17.970;2023-04-03T06:56:28;-1.00;99.90
71142;DHT22;58808;59.366;17.970;2023-04-03T06:58:54;-0.90;99.90
71142;DHT22;58808;59.366;17.970;2023-04-03T07:01:21;-0.80;99.90
71142;DHT22;58808;59.366;17.970;2023-04-03T07:03:48;-0.80;99.90
71142;DHT22;58808;59.366;17.970;2023-04-03T07:06:15;-0.80;99.90
71142;DHT22;58808;59.366;17.970;2023-04-03T07:08:41;-0.80;99.90
71142;DHT22;58808;59.366;17.970;2023-04-03T07:11:08;-0.70;99.90
71142;DHT22;58808;59.366;17.970;2023-04-03T07:13:35;-0.70;99.90
71142;DHT22;58808;59.366;17.970;2023-04-03T07:16:02;-0.50;99.90
71142;DHT22;58808;59.366;17.970;2023-04-03T07:18:29;-0.40;99.90
71142;DHT22;58808;59.366;17.970;2023-04-03T07:20:54;-0.40;99.90
71142;DHT22;58808;59.366;17.970;2023-04-03T07:23:20;-0.30;99.90
71142;DHT22;58808;59.366;17.970;2023-04-03T07:25:47;-0.30;99.90
71142;DHT22;58808;59.366;17.970;2023-04-03T07:28:14;-0.20;99.90
71142;DHT22;58808;59.366;17.970;2023-04-03T07:30:44;-0.20;99.90
71142;DHT22;58808;59.366;17.970;2023-04-03T07:33:10;-0.20;99.90
71142;DHT22;58808;59.366;17.970;2023-04-03T07:35:37;0.00;99.90
71142;DHT22;58808;59.366;17.970;2023-04-03T07:38:03;0.00;99.90
71142;DHT22;58808;59.366;17.970;2023-04-03T07:40:29;0.20;99.90
71142;DHT22;58808;59.366;17.970;2023-04-03T07:42:55;0.60;99.90
71142;DHT22;58808;59.366;17.970;2023-04-03T07:45:22;1.10;99.90
71142;DHT22;58808;59.366;17.970;2023-04-03T07:47:48;1.50;99.90
71142;DHT22;58808;59.366;17.970;2023-04-03T07:50:15;1.80;99.90
71142;DHT22;58808;59.366;17.970;2023-04-03T07:52:41;2.10;99.90
71142;DHT22;58808;59.366;17.970;2023-04-03T07:55:07;2.40;99.90
71142;DHT22;58808;59.366;17.970;2023-04-03T07:57:33;2.50;99.90
71142;DHT22;58808;59.366;17.970;2023-04-03T07:59:59;2.70;99.90
71142;DHT22;58808;59.366;17.970;2023-04-03T08:02:24;3.00;99.90
71142;DHT22;58808;59.366;17.970;2023-04-03T08:04:50;3.20;99.90
71142;DHT22;58808;59.366;17.970;2023-04-03T08:07:16;3.20;99.00
71142;DHT22;58808;59.366;17.970;2023-04-03T08:09:42;3.30;96.60
71142;DHT22;58808;59.366;17.970;2023-04-03T08:12:07;3.40;95.70
71142;DHT22;58808;59.366;17.970;2023-04-03T08:14:33;3.40;94.30
71142;DHT22;58808;59.366;17.970;2023-04-03T08:17:02;3.40;93.70
71142;DHT22;58808;59.366;17.970;2023-04-03T08:19:30;3.50;92.30
71142;DHT22;58808;59.366;17.970;2023-04-03T08:21:56;3.60;92.60
71142;DHT22;58808;59.366;17.970;2023-04-03T08:24:24;3.90;92.90
71142;DHT22;58808;59.366;17.970;2023-04-03T08:26:50;4.10;92.10
71142;DHT22;58808;59.366;17.970;2023-04-03T08:29:16;4.20;91.20
71142;DHT22;58808;59.366;17.970;2023-04-03T08:31:41;4.40;90.80
71142;DHT22;58808;59.366;17.970;2023-04-03T08:34:08;4.40;88.10
71142;DHT22;58808;59.366;17.970;2023-04-03T08:36:34;4.40;87.40
71142;DHT22;58808;59.366;17.970;2023-04-03T08:38:59;4.50;85.80
71142;DHT22;58808;59.366;17.970;2023-04-03T08:41:43;4.80;84.90
71142;DHT22;58808;59.366;17.970;2023-04-03T08:49:53;5.30;82.40
71142;DHT22;58808;59.366;17.970;2023-04-03T08:52:44;5.30;80.20
71142;DHT22;58808;59.366;17.970;2023-04-03T08:55:24;5.40;80.40
71142;DHT22;58808;59.366;17.970;2023-04-03T08:58:04;5.40;78.70
71142;DHT22;58808;59.366;17.970;2023-04-03T09:00:39;5.40;77.40
71142;DHT22;58808;59.366;17.970;2023-04-03T09:03:15;5.50;75.60
71142;DHT22;58808;59.366;17.970;2023-04-03T09:05:48;5.60;72.80
71142;DHT22;58808;59.366;17.970;2023-04-03T09:08:30;5.60;70.40
71142;DHT22;58808;59.366;17.970;2023-04-03T09:21:36;6.00;64.70
71142;DHT22;58808;59.366;17.970;2023-04-03T09:24:05;6.10;61.90
71142;DHT22;58808;59.366;17.970;2023-04-03T09:29:16;6.10;61.30
71142;DHT22;58808;59.366;17.970;2023-04-03T09:31:44;6.20;60.20
71142;DHT22;58808;59.366;17.970;2023-04-03T09:34:24;6.20;60.20
71142;DHT22;58808;59.366;17.970;2023-04-03T09:36:56;6.30;59.20
71142;DHT22;58808;59.366;17.970;2023-04-03T09:39:28;6.40;58.30
71142;DHT22;58808;59.366;17.970;2023-04-03T09:42:16;6.50;58.60
71142;DHT22;58808;59.366;17.970;2023-04-03T09:44:57;6.60;58.70
71142;DHT22;58808;59.366;17.970;2023-04-03T09:52:37;6.70;52.90
71142;DHT22;58808;59.366;17.970;2023-04-03T09:55:08;6.80;53.30
71142;DHT22;58808;59.366;17.970;2023-04-03T09:57:38;6.90;53.00
71142;DHT22;58808;59.366;17.970;2023-04-03T10:00:05;7.00;53.40
71142;DHT22;58808;59.366;17.970;2023-04-03T10:02:40;7.00;52.30
71142;DHT22;58808;59.366;17.970;2023-04-03T10:05:37;7.00;51.10
71142;DHT22;58808;59.366;17.970;2023-04-03T10:10:40;7.20;52.50
71142;DHT22;58808;59.366;17.970;2023-04-03T10:13:17;7.30;52.00
71142;DHT22;58808;59.366;17.970;2023-04-03T10:16:08;7.50;51.70
71142;DHT22;58808;59.366;17.970;2023-04-03T10:32:52;7.90;47.60
71142;DHT22;58808;59.366;17.970;2023-04-03T10:41:27;8.00;47.60
71142;DHT22;58808;59.366;17.970;2023-04-03T10:55:14;8.10;45.70
71142;DHT22;58808;59.366;17.970;2023-04-03T10:57:46;8.20;47.10
71142;DHT22;58808;59.366;17.970;2023-04-03T11:00:22;8.00;47.60
71142;DHT22;58808;59.366;17.970;2023-04-03T11:02:56;8.10;48.20
71142;DHT22;58808;59.366;17.970;2023-04-03T11:05:42;8.20;46.60
71142;DHT22;58808;59.366;17.970;2023-04-03T11:10:49;8.20;46.10
71142;DHT22;58808;59.366;17.970;2023-04-03T11:13:40;8.30;47.10
71142;DHT22;58808;59.366;17.970;2023-04-03T11:16:08;8.40;46.50
71142;DHT22;58808;59.366;17.970;2023-04-03T11:18:48;8.50;46.00
71142;DHT22;58808;59.366;17.970;2023-04-03T11:21:29;8.60;45.50
71142;DHT22;58808;59.366;17.970;2023-04-03T11:23:58;8.50;47.20
71142;DHT22;58808;59.366;17.970;2023-04-03T11:26:30;8.50;44.60
71142;DHT22;58808;59.366;17.970;2023-04-03T11:29:06;8.60;42.00
71142;DHT22;58808;59.366;17.970;2023-04-03T11:36:57;8.80;43.60
71142;DHT22;58808;59.366;17.970;2023-04-03T11:39:31;8.70;42.60
71142;DHT22;58808;59.366;17.970;2023-04-03T11:42:22;8.70;44.70
71142;DHT22;58808;59.366;17.970;2023-04-03T11:44:50;8.60;44.70
71142;DHT22;58808;59.366;17.970;2023-04-03T12:05:55;9.10;42.70
71142;DHT22;58808;59.366;17.970;2023-04-03T12:18:58;9.10;39.40
71142;DHT22;58808;59.366;17.970;2023-04-03T12:26:41;9.60;40.20
71142;DHT22;58808;59.366;17.970;2023-04-03T12:29:33;9.60;40.40
71142;DHT22;58808;59.366;17.970;2023-04-03T12:48:49;9.90;38.70
71142;DHT22;58808;59.366;17.970;2023-04-03T12:51:22;9.90;40.20
71142;DHT22;58808;59.366;17.970;2023-04-03T12:53:54;9.90;38.40
71142;DHT22;58808;59.366;17.970;2023-04-03T12:56:25;10.00;38.80
71142;DHT22;58808;59.366;17.970;2023-04-03T12:59:12;10.10;39.80
71142;DHT22;58808;59.366;17.970;2023-04-03T13:01:38;10.10;38.40
71142;DHT22;58808;59.366;17.970;2023-04-03T13:04:04;10.30;38.00
71142;DHT22;58808;59.366;17.970;2023-04-03T13:06:34;10.40;38.90
71142;DHT22;58808;59.366;17.970;2023-04-03T13:09:03;10.40;38.20
71142;DHT22;58808;59.366;17.970;2023-04-03T13:11:38;10.50;37.80
71142;DHT22;58808;59.366;17.970;2023-04-03T13:14:20;10.40;36.00
71142;DHT22;58808;59.366;17.970;2023-04-03T13:16:57;10.50;36.60
71142;DHT22;58808;59.366;17.970;2023-04-03T13:19:25;10.60;36.20
71142;DHT22;58808;59.366;17.970;2023-04-03T13:21:59;10.60;36.50
71142;DHT22;58808;59.366;17.970;2023-04-03T13:24:26;10.50;34.60
71142;DHT22;58808;59.366;17.970;2023-04-03T13:26:52;10.20;35.40
71142;DHT22;58808;59.366;17.970;2023-04-03T13:29:37;10.10;36.30
71142;DHT22;58808;59.366;17.970;2023-04-03T13:32:05;9.90;36.10
71142;DHT22;58808;59.366;17.970;2023-04-03T13:34:41;9.90;37.50
71142;DHT22;58808;59.366;17.970;2023-04-03T13:42:33;10.20;36.30
71142;DHT22;58808;59.366;17.970;2023-04-03T13:45:24;10.30;35.50
71142;DHT22;58808;59.366;17.970;2023-04-03T13:47:52;10.50;35.90
71142;DHT22;58808;59.366;17.970;2023-04-03T13:50:26;10.30;34.00
71142;DHT22;58808;59.366;17.970;2023-04-03T13:53:11;10.20;35.00
71142;DHT22;58808;59.366;17.970;2023-04-03T13:58:31;10.30;36.50
71142;DHT22;58808;59.366;17.970;2023-04-03T14:06:19;10.70;34.70
71142;DHT22;58808;59.366;17.970;2023-04-03T14:08:46;10.70;33.80
71142;DHT22;58808;59.366;17.970;2023-04-03T14:11:29;10.30;32.10
71142;DHT22;58808;59.366;17.970;2023-04-03T14:13:59;10.20;34.50
71142;DHT22;58808;59.366;17.970;2023-04-03T14:16:29;10.10;35.50
71142;DHT22;58808;59.366;17.970;2023-04-03T14:18:56;10.10;33.80
71142;DHT22;58808;59.366;17.970;2023-04-03T14:21:22;10.00;34.90
71142;DHT22;58808;59.366;17.970;2023-04-03T14:23:48;10.00;34.50
71142;DHT22;58808;59.366;17.970;2023-04-03T14:26:17;9.90;34.50
71142;DHT22;58808;59.366;17.970;2023-04-03T14:28:45;9.70;34.70
71142;DHT22;58808;59.366;17.970;2023-04-03T14:31:12;9.80;35.10
71142;DHT22;58808;59.366;17.970;2023-04-03T14:33:39;10.00;36.60
71142;DHT22;58808;59.366;17.970;2023-04-03T14:36:22;10.10;35.00
71142;DHT22;58808;59.366;17.970;2023-04-03T14:38:50;10.20;33.90
71142;DHT22;58808;59.366;17.970;2023-04-03T14:41:19;10.20;34.50
71142;DHT22;58808;59.366;17.970;2023-04-03T14:43:46;10.20;34.30
71142;DHT22;58808;59.366;17.970;2023-04-03T14:46:16;10.10;33.50
71142;DHT22;58808;59.366;17.970;2023-04-03T14:48:42;10.20;32.80
71142;DHT22;58808;59.366;17.970;2023-04-03T14:51:11;10.10;32.10
71142;DHT22;58808;59.366;17.970;2023-04-03T14:53:37;10.10;32.70
71142;DHT22;58808;59.366;17.970;2023-04-03T14:56:10;10.00;32.40
71142;DHT22;58808;59.366;17.970;2023-04-03T14:58:36;10.00;33.70
71142;DHT22;58808;59.366;17.970;2023-04-03T15:01:02;9.90;32.50
71142;DHT22;58808;59.366;17.970;2023-04-03T15:03:28;9.80;33.50
71142;DHT22;58808;59.366;17.970;2023-04-03T15:05:54;9.80;34.60
71142;DHT22;58808;59.366;17.970;2023-04-03T15:08:25;9.80;35.10
71142;DHT22;58808;59.366;17.970;2023-04-03T15:10:52;10.00;33.90
71142;DHT22;58808;59.366;17.970;2023-04-03T15:13:22;10.00;34.80
71142;DHT22;58808;59.366;17.970;2023-04-03T15:15:49;10.10;34.30
71142;DHT22;58808;59.366;17.970;2023-04-03T15:18:25;10.10;34.20
71142;DHT22;58808;59.366;17.970;2023-04-03T15:20:52;10.10;34.30
71142;DHT22;58808;59.366;17.970;2023-04-03T15:23:18;9.90;32.70
71142;DHT22;58808;59.366;17.970;2023-04-03T15:25:46;9.70;33.60
71142;DHT22;58808;59.366;17.970;2023-04-03T15:28:22;9.60;34.00
71142;DHT22;58808;59.366;17.970;2023-04-03T15:30:48;9.60;34.80
71142;DHT22;58808;59.366;17.970;2023-04-03T15:33:15;9.50;34.80
71142;DHT22;58808;59.366;17.970;2023-04-03T15:35:42;9.50;34.60
71142;DHT22;58808;59.366;17.970;2023-04-03T15:38:08;9.50;33.50
71142;DHT22;58808;59.366;17.970;2023-04-03T15:40:35;9.50;34.40
71142;DHT22;58808;59.366;17.970;2023-04-03T15:43:01;9.50;34.80
71142;DHT22;58808;59.366;17.970;2023-04-03T15:45:29;9.50;33.80
71142;DHT22;58808;59.366;17.970;2023-04-03T15:47:56;9.60;34.70
71142;DHT22;58808;59.366;17.970;2023-04-03T15:50:22;9.50;34.80
71142;DHT22;58808;59.366;17.970;2023-04-03T15:52:50;9.30;34.30
71142;DHT22;58808;59.366;17.970;2023-04-03T15:55:21;9.20;34.00
71142;DHT22;58808;59.366;17.970;2023-04-03T15:57:47;9.10;35.60
71142;DHT22;58808;59.366;17.970;2023-04-03T16:00:14;9.10;35.20
71142;DHT22;58808;59.366;17.970;2023-04-03T16:02:40;9.10;37.20
71142;DHT22;58808;59.366;17.970;2023-04-03T16:05:08;8.90;37.30
71142;DHT22;58808;59.366;17.970;2023-04-03T16:07:34;8.80;37.50
71142;DHT22;58808;59.366;17.970;2023-04-03T16:10:00;8.70;38.00
71142;DHT22;58808;59.366;17.970;2023-04-03T16:12:26;8.60;38.30
71142;DHT22;58808;59.366;17.970;2023-04-03T16:14:51;8.50;37.80
71142;DHT22;58808;59.366;17.970;2023-04-03T16:17:17;8.40;38.20
71142;DHT22;58808;59.366;17.970;2023-04-03T16:19:43;8.20;39.00
71142;DHT22;58808;59.366;17.970;2023-04-03T16:22:08;8.20;38.90
71142;DHT22;58808;59.366;17.970;2023-04-03T16:24:34;8.10;39.40
71142;DHT22;58808;59.366;17.970;2023-04-03T16:27:01;8.10;39.20
71142;DHT22;58808;59.366;17.970;2023-04-03T16:29:26;7.90;39.40
71142;DHT22;58808;59.366;17.970;2023-04-03T16:31:52;7.70;39.00
71142;DHT22;58808;59.366;17.970;2023-04-03T16:34:18;7.70;39.00
71142;DHT22;58808;59.366;17.970;2023-04-03T16:36:44;7.60;39.30
71142;DHT22;58808;59.366;17.970;2023-04-03T16:39:09;7.50;40.00
71142;DHT22;58808;59.366;17.970;2023-04-03T16:41:35;7.50;40.40
71142;DHT22;58808;59.366;17.970;2023-04-03T16:44:01;7.40;40.70
71142;DHT22;58808;59.366;17.970;2023-04-03T16:46:28;7.30;40.70
71142;DHT22;58808;59.366;17.970;2023-04-03T16:48:53;7.20;41.20
71142;DHT22;58808;59.366;17.970;2023-04-03T16:51:19;7.20;40.80
71142;DHT22;58808;59.366;17.970;2023-04-03T16:53:45;7.20;40.70
71142;DHT22;58808;59.366;17.970;2023-04-03T16:56:11;7.10;41.30
71142;DHT22;58808;59.366;17.970;2023-04-03T16:58:36;6.90;41.50
71142;DHT22;58808;59.366;17.970;2023-04-03T17:01:13;7.00;41.10
71142;DHT22;58808;59.366;17.970;2023-04-03T17:03:39;7.00;41.60
71142;DHT22;58808;59.366;17.970;2023-04-03T17:06:06;6.70;41.30
71142;DHT22;58808;59.366;17.970;2023-04-03T17:08:32;6.70;41.70
71142;DHT22;58808;59.366;17.970;2023-04-03T17:10:57;6.70;41.30
71142;DHT22;58808;59.366;17.970;2023-04-03T17:13:23;6.60;41.50
71142;DHT22;58808;59.366;17.970;2023-04-03T17:15:56;6.60;41.20
71142;DHT22;58808;59.366;17.970;2023-04-03T17:18:22;6.50;41.60
71142;DHT22;58808;59.366;17.970;2023-04-03T17:20:48;6.50;42.10
71142;DHT22;58808;59.366;17.970;2023-04-03T17:23:14;6.40;41.80
71142;DHT22;58808;59.366;17.970;2023-04-03T17:25:39;6.40;41.90
71142;DHT22;58808;59.366;17.970;2023-04-03T17:28:05;6.40;42.20
71142;DHT22;58808;59.366;17.970;2023-04-03T17:30:31;6.30;42.30
71142;DHT22;58808;59.366;17.970;2023-04-03T17:32:57;6.30;42.10
71142;DHT22;58808;59.366;17.970;2023-04-03T17:35:22;6.10;42.70
71142;DHT22;58808;59.366;17.970;2023-04-03T17:37:48;6.10;42.70
71142;DHT22;58808;59.366;17.970;2023-04-03T17:40:18;6.10;42.80
71142;DHT22;58808;59.366;17.970;2023-04-03T17:42:44;6.00;43.00
71142;DHT22;58808;59.366;17.970;2023-04-03T17:45:10;6.00;43.30
71142;DHT22;58808;59.366;17.970;2023-04-03T17:47:35;6.00;43.80